createdAt,value
2022-12-24T00:00:22.062Z,96.90
2022-12-24T00:02:50.471Z,97.00
2022-12-24T00:05:18.891Z,97.20
2022-12-24T00:07:52.529Z,96.90
2022-12-24T00:10:20.879Z,96.80
2022-12-24T00:12:50.570Z,97.20
2022-12-24T00:15:19.074Z,97.20
2022-12-24T00:17:47.502Z,97.10
2022-12-24T00:20:15.883Z,96.90
2022-12-24T00:22:44.239Z,96.80
2022-12-24T00:25:12.887Z,97.00
2022-12-24T00:27:41.264Z,97.00
2022-12-24T00:30:11.881Z,96.90
2022-12-24T00:32:40.412Z,96.90
2022-12-24T00:35:09.483Z,97.00
2022-12-24T00:37:37.848Z,97.20
2022-12-24T00:40:07.400Z,96.80
2022-12-24T00:42:35.753Z,97.20
2022-12-24T00:45:04.114Z,97.00
2022-12-24T00:47:33.814Z,97.20
2022-12-24T00:50:02.119Z,96.70
2022-12-24T00:52:36.089Z,97.30
2022-12-24T00:55:06.541Z,96.70
2022-12-24T00:57:34.852Z,97.10
2022-12-24T01:00:05.721Z,97.40
2022-12-24T01:02:40.837Z,96.60
2022-12-24T01:05:10.369Z,97.20
2022-12-24T01:07:40.731Z,96.90
2022-12-24T01:10:09.718Z,96.90
2022-12-24T01:12:40.905Z,96.50
2022-12-24T01:15:09.995Z,96.60
2022-12-24T01:17:39.663Z,96.40
2022-12-24T01:20:18.586Z,96.20
2022-12-24T01:22:46.937Z,96.60
2022-12-24T01:25:15.841Z,97.10
2022-12-24T01:27:44.258Z,97.20
2022-12-24T01:30:14.193Z,96.90
2022-12-24T01:32:46.522Z,96.90
2022-12-24T01:35:15.062Z,97.00
2022-12-24T01:37:43.448Z,96.80
2022-12-24T01:40:31.554Z,96.80
2022-12-24T01:43:19.129Z,97.00
2022-12-24T01:45:52.919Z,96.90
2022-12-24T01:48:34.098Z,96.60
2022-12-24T01:51:03.923Z,96.90
2022-12-24T01:53:34.724Z,97.10
2022-12-24T01:56:03.257Z,97.00
2022-12-24T01:58:31.627Z,97.00
2022-12-24T02:01:02.462Z,97.20
2022-12-24T02:03:32.252Z,97.00
2022-12-24T02:06:00.818Z,96.50
2022-12-24T02:08:39.859Z,96.90
2022-12-24T02:11:15.557Z,97.00
2022-12-24T02:13:46.381Z,96.90
2022-12-24T02:16:20.438Z,97.00
2022-12-24T02:18:53.783Z,97.10
2022-12-24T02:21:40.571Z,96.40
2022-12-24T02:24:23.855Z,97.10
2022-12-24T02:27:10.827Z,96.60
2022-12-24T02:30:03.200Z,97.10
2022-12-24T02:32:36.241Z,96.90
2022-12-24T02:35:06.737Z,97.10
2022-12-24T02:37:37.776Z,97.00
2022-12-24T02:40:16.074Z,96.40
2022-12-24T02:42:46.853Z,96.80
2022-12-24T02:45:17.169Z,96.90
2022-12-24T02:47:45.510Z,97.10
2022-12-24T02:50:15.279Z,96.80
2022-12-24T02:52:44.741Z,96.70
2022-12-24T02:55:14.320Z,96.80
2022-12-24T02:57:55.229Z,96.70
2022-12-24T03:00:25.055Z,96.60
2022-12-24T03:03:11.054Z,96.70
2022-12-24T03:05:43.286Z,95.90
2022-12-24T03:08:15.417Z,96.10
2022-12-24T03:10:47.811Z,96.90
2022-12-24T03:13:18.548Z,97.00
2022-12-24T03:15:48.638Z,97.10
2022-12-24T03:18:19.842Z,96.20
2022-12-24T03:20:49.975Z,96.70
2022-12-24T03:23:18.358Z,96.30
2022-12-24T03:25:48.492Z,95.20
2022-12-24T03:28:17.695Z,96.50
2022-12-24T03:30:48.670Z,95.40
2022-12-24T03:33:17.093Z,95.20
2022-12-24T03:35:45.503Z,96.40
2022-12-24T03:38:13.813Z,96.50
2022-12-24T03:40:42.167Z,96.60
2022-12-24T03:43:13.024Z,96.50
2022-12-24T03:45:41.544Z,96.30
2022-12-24T03:48:11.282Z,95.10
2022-12-24T03:50:39.650Z,96.20
2022-12-24T03:53:08.044Z,96.60
2022-12-24T03:55:39.801Z,96.60
2022-12-24T03:58:08.110Z,96.30
2022-12-24T04:00:39.172Z,96.50
2022-12-24T04:03:07.588Z,95.80
2022-12-24T04:05:37.307Z,96.40
2022-12-24T04:08:05.705Z,96.50
2022-12-24T04:10:34.063Z,96.20
2022-12-24T04:13:02.372Z,96.50
2022-12-24T04:15:32.903Z,96.40
2022-12-24T04:18:01.197Z,96.30
2022-12-24T04:20:29.542Z,96.30
2022-12-24T04:22:59.239Z,96.30
2022-12-24T04:25:30.400Z,96.00
2022-12-24T04:27:58.700Z,96.60
2022-12-24T04:30:26.987Z,96.40
2022-12-24T04:33:17.835Z,96.40
2022-12-24T04:35:44.515Z,95.80
2022-12-24T04:38:14.244Z,96.40
2022-12-24T04:40:42.608Z,96.00
2022-12-24T04:43:10.932Z,96.00
2022-12-24T04:45:40.772Z,95.80
2022-12-24T04:48:09.215Z,95.20
2022-12-24T04:50:37.566Z,95.70
2022-12-24T04:53:05.871Z,95.70
2022-12-24T04:55:35.607Z,95.60
2022-12-24T04:58:06.097Z,95.20
2022-12-24T05:00:34.407Z,95.40
2022-12-24T05:03:05.922Z,95.00
2022-12-24T05:05:36.727Z,95.10
2022-12-24T05:08:05.387Z,95.00
2022-12-24T05:10:35.052Z,95.00
2022-12-24T05:13:03.377Z,95.00
2022-12-24T05:15:34.137Z,95.00
2022-12-24T05:18:02.519Z,95.00
2022-12-24T05:20:33.392Z,95.00
2022-12-24T05:23:28.366Z,95.00
2022-12-24T05:26:20.044Z,95.00
2022-12-24T05:28:51.333Z,95.00
2022-12-24T05:31:19.736Z,95.00
2022-12-24T05:33:50.692Z,95.00
2022-12-24T05:36:18.985Z,95.00
2022-12-24T05:38:47.424Z,95.00
2022-12-24T05:41:17.150Z,95.00
2022-12-24T05:43:45.472Z,95.00
2022-12-24T05:46:17.216Z,95.00
2022-12-24T05:48:47.908Z,95.00
2022-12-24T05:51:18.729Z,95.00
2022-12-24T05:53:47.626Z,95.00
2022-12-24T05:56:24.173Z,95.10
2022-12-24T05:58:53.449Z,95.10
2022-12-24T06:01:22.269Z,95.10
2022-12-24T06:03:50.618Z,95.10
2022-12-24T06:06:20.998Z,95.00
2022-12-24T06:08:49.781Z,95.10
2022-12-24T06:11:22.621Z,95.00
2022-12-24T06:13:51.003Z,95.10
2022-12-24T06:16:23.143Z,95.10
2022-12-24T06:18:51.730Z,95.10
2022-12-24T06:21:20.177Z,95.10
2022-12-24T06:23:48.812Z,95.10
2022-12-24T06:26:18.311Z,95.10
2022-12-24T06:28:51.961Z,95.20
2022-12-24T06:31:21.766Z,95.20
2022-12-24T06:33:50.284Z,95.20
2022-12-24T06:36:19.497Z,95.20
2022-12-24T06:38:48.442Z,95.20
2022-12-24T06:41:17.062Z,95.10
2022-12-24T06:43:47.256Z,95.10
2022-12-24T06:46:15.882Z,95.20
2022-12-24T06:48:44.825Z,95.20
2022-12-24T06:51:13.430Z,95.30
2022-12-24T06:53:41.786Z,95.30
2022-12-24T06:56:10.776Z,95.20
2022-12-24T06:58:39.212Z,95.30
2022-12-24T07:01:10.332Z,95.30
2022-12-24T07:03:44.922Z,95.30
2022-12-24T07:06:18.996Z,95.10
2022-12-24T07:08:51.816Z,95.10
2022-12-24T07:11:20.181Z,95.00
2022-12-24T07:13:49.227Z,95.10
2022-12-24T07:16:19.124Z,95.00
2022-12-24T07:18:47.614Z,95.20
2022-12-24T07:21:15.994Z,95.00
2022-12-24T07:23:44.692Z,94.90
2022-12-24T07:26:14.349Z,95.20
2022-12-24T07:28:44.801Z,95.10
2022-12-24T07:31:13.223Z,95.20
2022-12-24T07:33:42.953Z,95.30
2022-12-24T07:36:12.695Z,95.40
2022-12-24T07:38:43.886Z,95.00
2022-12-24T07:41:15.203Z,95.30
2022-12-24T07:43:46.972Z,95.30
2022-12-24T07:46:15.341Z,95.20
2022-12-24T07:48:45.003Z,95.40
2022-12-24T07:51:13.379Z,95.50
2022-12-24T07:53:47.705Z,95.10
2022-12-24T07:56:16.184Z,95.50
2022-12-24T07:58:44.492Z,95.10
2022-12-24T08:01:12.920Z,95.00
2022-12-24T08:03:41.481Z,95.00
2022-12-24T08:06:11.327Z,94.90
2022-12-24T08:08:39.669Z,94.90
2022-12-24T08:11:08.287Z,95.00
2022-12-24T08:13:36.584Z,94.90
2022-12-24T08:16:05.334Z,94.90
2022-12-24T08:18:33.749Z,95.00
2022-12-24T08:21:04.018Z,95.00
2022-12-24T08:23:33.833Z,95.00
2022-12-24T08:26:02.152Z,95.00
2022-12-24T08:28:30.541Z,95.00
2022-12-24T08:30:58.961Z,95.00
2022-12-24T08:33:27.333Z,95.00
2022-12-24T08:35:56.461Z,95.00
2022-12-24T08:38:24.867Z,95.00
2022-12-24T08:40:55.457Z,95.00
2022-12-24T08:43:25.493Z,95.00
2022-12-24T08:45:54.020Z,95.00
2022-12-24T08:48:25.151Z,95.00
2022-12-24T08:50:53.448Z,95.00
2022-12-24T08:53:21.759Z,95.00
2022-12-24T08:56:01.701Z,95.20
2022-12-24T08:58:30.533Z,95.40
2022-12-24T09:00:58.990Z,95.40
2022-12-24T09:03:28.306Z,95.50
2022-12-24T09:05:56.828Z,95.60
2022-12-24T09:08:28.983Z,95.80
2022-12-24T09:11:03.005Z,96.30
2022-12-24T09:13:31.358Z,97.00
2022-12-24T09:15:59.748Z,96.70
2022-12-24T09:18:30.030Z,96.50
2022-12-24T09:21:07.498Z,96.50
2022-12-24T09:23:36.213Z,96.60
2022-12-24T09:26:10.171Z,96.30
2022-12-24T09:28:38.545Z,96.80
2022-12-24T09:31:07.515Z,96.30
2022-12-24T09:33:36.572Z,95.90
2022-12-24T09:36:05.339Z,96.20
2022-12-24T09:38:33.898Z,96.10
2022-12-24T09:41:08.863Z,96.00
2022-12-24T09:43:38.885Z,96.10
2022-12-24T09:46:12.328Z,95.90
2022-12-24T09:48:41.893Z,96.10
2022-12-24T09:51:11.230Z,96.30
2022-12-24T09:53:41.579Z,96.00
2022-12-24T09:56:15.186Z,96.70
2022-12-24T09:58:46.122Z,97.00
2022-12-24T10:01:15.451Z,97.00
2022-12-24T10:03:43.936Z,96.80
2022-12-24T10:06:15.210Z,96.80
2022-12-24T10:08:53.916Z,96.80
2022-12-24T10:11:26.295Z,97.10
2022-12-24T10:14:23.187Z,97.00
2022-12-24T10:16:54.868Z,96.70
2022-12-24T10:19:29.261Z,97.00
2022-12-24T10:22:02.947Z,96.90
2022-12-24T10:24:32.766Z,96.80
2022-12-24T10:27:03.278Z,96.90
2022-12-24T10:29:34.984Z,96.70
2022-12-24T10:32:24.149Z,96.70
2022-12-24T10:34:54.838Z,96.80
2022-12-24T10:37:24.649Z,96.90
2022-12-24T10:39:53.156Z,96.80
2022-12-24T10:42:21.787Z,96.80
2022-12-24T10:44:54.859Z,96.80
2022-12-24T10:47:23.179Z,96.80
2022-12-24T10:49:54.166Z,96.50
2022-12-24T10:52:24.875Z,96.90
2022-12-24T10:55:09.254Z,96.90
2022-12-24T10:57:43.471Z,96.90
2022-12-24T11:00:20.340Z,96.90
2022-12-24T11:03:05.907Z,97.30
2022-12-24T11:05:37.211Z,96.50
2022-12-24T11:08:06.733Z,97.00
2022-12-24T11:10:39.746Z,96.90
2022-12-24T11:13:38.316Z,96.60
2022-12-24T11:16:08.599Z,96.80
2022-12-24T11:18:38.168Z,96.70
2022-12-24T11:21:06.898Z,96.80
2022-12-24T11:23:37.685Z,96.70
2022-12-24T11:26:06.263Z,96.60
2022-12-24T11:28:34.606Z,96.40
2022-12-24T11:31:04.860Z,96.30
2022-12-24T11:33:46.114Z,96.40
2022-12-24T11:36:14.527Z,96.40
2022-12-24T11:38:42.821Z,96.10
2022-12-24T11:41:14.593Z,96.10
2022-12-24T11:43:47.343Z,95.90
2022-12-24T11:46:21.457Z,96.10
2022-12-24T11:48:51.271Z,95.90
2022-12-24T11:51:21.967Z,96.00
2022-12-24T11:53:51.642Z,96.60
2022-12-24T11:56:29.008Z,96.10
2022-12-24T11:58:59.415Z,96.00
2022-12-24T12:01:31.851Z,95.80
2022-12-24T12:04:02.681Z,96.10
2022-12-24T12:06:37.196Z,95.90
2022-12-24T12:09:08.555Z,95.80
2022-12-24T12:11:36.848Z,96.00
2022-12-24T12:14:05.139Z,95.90
2022-12-24T12:16:56.546Z,95.80
2022-12-24T12:19:26.311Z,96.00
2022-12-24T12:21:54.663Z,96.00
2022-12-24T12:24:31.569Z,96.00
2022-12-24T12:27:05.337Z,96.00
2022-12-24T12:29:34.762Z,96.10
2022-12-24T12:32:05.930Z,96.10
2022-12-24T12:34:37.785Z,96.10
2022-12-24T12:37:12.768Z,96.00
2022-12-24T12:39:43.143Z,96.10
2022-12-24T12:42:15.736Z,96.30
2022-12-24T12:44:50.757Z,96.20
2022-12-24T12:47:46.644Z,96.10
2022-12-24T12:50:19.009Z,96.40
2022-12-24T12:52:56.150Z,96.50
2022-12-24T12:55:27.678Z,96.50
2022-12-24T12:57:57.367Z,96.60
2022-12-24T13:00:25.780Z,96.90
2022-12-24T13:03:02.276Z,96.90
2022-12-24T13:05:43.245Z,96.70
2022-12-24T13:08:18.451Z,96.40
2022-12-24T13:10:55.157Z,96.20
2022-12-24T13:13:36.925Z,96.00
2022-12-24T13:16:21.382Z,95.80
2022-12-24T13:19:00.036Z,95.10
2022-12-24T13:21:30.336Z,95.00
2022-12-24T13:24:08.336Z,95.20
2022-12-24T13:26:36.710Z,95.10
2022-12-24T13:29:32.429Z,95.20
2022-12-24T13:32:38.357Z,95.10
2022-12-24T13:35:46.534Z,95.00
2022-12-24T13:38:49.287Z,95.00
2022-12-24T13:41:57.412Z,95.00
2022-12-24T13:44:35.943Z,95.00
2022-12-24T13:47:25.542Z,95.00
2022-12-24T13:49:58.785Z,95.00
2022-12-24T13:52:31.325Z,95.00
2022-12-24T13:55:09.505Z,95.00
2022-12-24T13:57:39.360Z,95.00
2022-12-24T14:00:26.827Z,95.00
2022-12-24T14:02:56.547Z,95.00
2022-12-24T14:05:28.739Z,94.90
2022-12-24T14:07:57.082Z,94.90
2022-12-24T14:10:28.123Z,94.90
2022-12-24T14:12:57.240Z,95.20
2022-12-24T14:16:00.216Z,94.90
2022-12-24T14:18:28.702Z,94.90
2022-12-24T14:20:58.908Z,94.90
2022-12-24T14:23:34.576Z,94.90
2022-12-24T14:26:04.523Z,94.90
2022-12-24T14:28:35.577Z,94.90
2022-12-24T14:31:04.656Z,94.90
2022-12-24T14:33:33.396Z,94.90
2022-12-24T14:36:01.908Z,94.90
2022-12-24T14:38:30.274Z,94.90
2022-12-24T14:41:02.082Z,94.90
2022-12-24T14:43:36.681Z,94.90
2022-12-24T14:46:08.491Z,94.90
2022-12-24T14:48:40.180Z,94.90
2022-12-24T14:51:11.467Z,94.90
2022-12-24T14:53:52.409Z,94.90
2022-12-24T14:56:22.415Z,94.90
2022-12-24T14:58:52.504Z,94.90
2022-12-24T15:01:22.817Z,94.90
2022-12-24T15:04:04.672Z,95.00
2022-12-24T15:06:34.489Z,95.00
2022-12-24T15:09:02.806Z,95.00
2022-12-24T15:11:31.114Z,95.00
2022-12-24T15:14:00.949Z,95.00
2022-12-24T15:16:30.067Z,95.30
2022-12-24T15:18:59.325Z,95.00
2022-12-24T15:21:30.073Z,95.00
2022-12-24T15:23:58.469Z,95.00
2022-12-24T15:26:27.801Z,95.00
2022-12-24T15:29:02.731Z,95.00
2022-12-24T15:31:33.118Z,95.00
2022-12-24T15:34:01.573Z,95.00
2022-12-24T15:36:31.530Z,95.00
2022-12-24T15:39:01.369Z,95.00
2022-12-24T15:41:30.708Z,95.00
2022-12-24T15:44:01.770Z,95.00
2022-12-24T15:46:30.772Z,95.00
2022-12-24T15:49:01.213Z,95.00
2022-12-24T15:51:31.284Z,95.10
2022-12-24T15:54:01.002Z,95.10
2022-12-24T15:56:35.064Z,95.10
2022-12-24T15:59:35.725Z,95.00
2022-12-24T16:02:29.051Z,95.10
2022-12-24T16:05:13.893Z,95.10
2022-12-24T16:07:56.182Z,95.10
2022-12-24T16:10:25.524Z,95.10
2022-12-24T16:12:53.816Z,95.10
2022-12-24T16:15:22.151Z,95.10
2022-12-24T16:17:52.994Z,95.10
2022-12-24T16:20:23.082Z,95.10
2022-12-24T16:22:51.440Z,95.10
2022-12-24T16:25:25.430Z,95.10
2022-12-24T16:27:55.521Z,95.10
2022-12-24T16:30:25.599Z,95.30
2022-12-24T16:32:53.889Z,95.10
2022-12-24T16:35:27.275Z,95.10
2022-12-24T16:37:55.678Z,95.10
2022-12-24T16:40:27.740Z,95.10
2022-12-24T16:43:14.584Z,95.10
2022-12-24T16:45:43.045Z,95.10
2022-12-24T16:48:14.913Z,95.10
2022-12-24T16:50:44.637Z,95.10
2022-12-24T16:53:17.676Z,95.10
2022-12-24T16:55:47.506Z,95.10
2022-12-24T16:58:16.408Z,95.10
2022-12-24T17:00:44.968Z,95.10
2022-12-24T17:03:13.415Z,95.10
2022-12-24T17:05:42.325Z,95.10
2022-12-24T17:08:12.085Z,95.10
2022-12-24T17:10:46.655Z,95.10
2022-12-24T17:13:15.016Z,95.10
2022-12-24T17:15:44.895Z,95.10
2022-12-24T17:18:13.281Z,95.10
2022-12-24T17:20:41.587Z,95.10
2022-12-24T17:23:11.314Z,95.10
2022-12-24T17:25:39.687Z,95.10
2022-12-24T17:28:08.046Z,95.10
2022-12-24T17:30:36.385Z,95.10
2022-12-24T17:33:09.323Z,95.10
2022-12-24T17:35:41.161Z,95.10
2022-12-24T17:38:10.813Z,95.10
2022-12-24T17:40:39.116Z,95.20
2022-12-24T17:43:07.422Z,95.10
2022-12-24T17:45:35.777Z,95.20
2022-12-24T17:48:04.180Z,95.10
2022-12-24T17:50:32.547Z,95.10
2022-12-24T17:53:00.911Z,95.10
2022-12-24T17:55:30.693Z,95.10
2022-12-24T17:57:59.453Z,95.10
2022-12-24T18:00:32.824Z,95.10
2022-12-24T18:03:01.822Z,95.20
2022-12-24T18:05:30.293Z,95.20
2022-12-24T18:07:58.656Z,95.10
2022-12-24T18:10:26.978Z,95.10
2022-12-24T18:12:56.694Z,95.10
2022-12-24T18:15:24.991Z,95.10
2022-12-24T18:17:53.606Z,95.10
2022-12-24T18:20:22.179Z,95.10
2022-12-24T18:22:50.491Z,95.10
2022-12-24T18:25:20.068Z,95.50
2022-12-24T18:27:48.529Z,95.10
2022-12-24T18:30:24.264Z,95.10
2022-12-24T18:32:55.847Z,95.10
2022-12-24T18:35:24.922Z,95.10
2022-12-24T18:37:53.345Z,95.10
2022-12-24T18:40:21.698Z,95.10
2022-12-24T18:42:50.080Z,95.10
2022-12-24T18:45:19.825Z,95.10
2022-12-24T18:47:48.187Z,95.10
2022-12-24T18:50:16.586Z,95.10
2022-12-24T18:52:44.889Z,95.10
2022-12-24T18:55:13.249Z,95.10
2022-12-24T18:57:41.634Z,95.10
2022-12-24T19:00:11.134Z,95.10
2022-12-24T19:02:40.892Z,95.10
2022-12-24T19:05:09.479Z,95.10
2022-12-24T19:07:37.824Z,95.10
2022-12-24T19:10:07.077Z,95.10
2022-12-24T19:12:35.572Z,95.10
2022-12-24T19:15:04.027Z,95.10
2022-12-24T19:17:32.305Z,95.10
2022-12-24T19:20:02.060Z,95.20
2022-12-24T19:22:35.451Z,95.10
2022-12-24T19:25:03.821Z,95.10
2022-12-24T19:27:34.977Z,95.10
2022-12-24T19:30:03.458Z,95.10
2022-12-24T19:32:33.800Z,95.10
2022-12-24T19:35:06.579Z,95.10
2022-12-24T19:37:34.923Z,95.10
2022-12-24T19:40:03.244Z,95.10
2022-12-24T19:42:31.631Z,95.10
2022-12-24T19:44:59.996Z,95.10
2022-12-24T19:47:31.142Z,95.10
2022-12-24T19:50:00.013Z,95.10
2022-12-24T19:52:29.714Z,95.10
2022-12-24T19:54:58.079Z,95.10
2022-12-24T19:57:27.439Z,95.10
2022-12-24T19:59:55.800Z,95.00
2022-12-24T20:02:30.274Z,95.10
2022-12-24T20:04:58.938Z,95.10
2022-12-24T20:07:27.317Z,95.10
2022-12-24T20:09:56.991Z,95.10
2022-12-24T20:12:25.339Z,95.10
2022-12-24T20:14:56.545Z,95.10
2022-12-24T20:17:24.911Z,95.10
2022-12-24T20:19:55.648Z,95.10
2022-12-24T20:22:23.974Z,95.10
2022-12-24T20:24:52.275Z,95.10
2022-12-24T20:27:22.463Z,95.10
2022-12-24T20:29:50.878Z,95.10
2022-12-24T20:32:21.643Z,95.10
2022-12-24T20:34:49.971Z,95.10
2022-12-24T20:37:18.328Z,95.10
2022-12-24T20:39:46.652Z,95.10
2022-12-24T20:42:15.075Z,95.10
2022-12-24T20:44:44.792Z,95.10
2022-12-24T20:47:13.111Z,95.10
2022-12-24T20:49:44.624Z,95.10
2022-12-24T20:52:12.961Z,95.00
2022-12-24T20:54:41.308Z,95.10
2022-12-24T20:57:09.670Z,95.10
2022-12-24T20:59:38.204Z,95.10
2022-12-24T21:02:11.580Z,95.10
2022-12-24T21:04:40.079Z,95.10
2022-12-24T21:07:08.390Z,95.10
2022-12-24T21:09:36.696Z,95.10
2022-12-24T21:12:28.342Z,95.10
2022-12-24T21:14:56.708Z,95.10
2022-12-24T21:17:29.594Z,95.10
2022-12-24T21:19:58.693Z,95.10
2022-12-24T21:22:27.002Z,95.10
2022-12-24T21:24:57.372Z,95.10
2022-12-24T21:27:25.953Z,95.10
2022-12-24T21:29:54.689Z,95.10
2022-12-24T21:32:24.056Z,95.10
2022-12-24T21:34:53.876Z,95.10
2022-12-24T21:37:22.350Z,95.10
2022-12-24T21:39:51.115Z,95.40
2022-12-24T21:42:19.537Z,95.00
2022-12-24T21:44:47.899Z,95.10
2022-12-24T21:47:18.659Z,95.10
2022-12-24T21:52:49.049Z,95.10
2022-12-24T21:55:16.573Z,95.10
2022-12-24T21:57:54.072Z,95.00
2022-12-24T22:00:22.549Z,95.10
2022-12-24T22:02:51.925Z,95.10
2022-12-24T22:05:20.741Z,95.00
2022-12-24T22:08:08.263Z,95.10
2022-12-24T22:10:54.165Z,94.70
2022-12-24T22:13:22.731Z,95.10
2022-12-24T22:15:53.015Z,95.10
2022-12-24T22:18:22.449Z,95.10
2022-12-24T22:20:50.925Z,95.10
2022-12-24T22:23:20.657Z,95.00
2022-12-24T22:25:49.006Z,95.10
2022-12-24T22:28:17.393Z,95.00
2022-12-24T22:30:51.258Z,95.10
2022-12-24T22:33:20.102Z,95.10
2022-12-24T22:35:51.244Z,95.10
2022-12-24T22:38:20.958Z,95.10
2022-12-24T22:40:49.327Z,95.10
2022-12-24T22:43:17.707Z,95.10
2022-12-24T22:45:46.048Z,95.20
2022-12-24T22:48:15.859Z,95.20
2022-12-24T22:50:44.250Z,95.40
2022-12-24T22:53:12.684Z,95.50
2022-12-24T22:55:42.360Z,95.40
2022-12-24T22:58:10.731Z,95.40
2022-12-24T23:00:40.915Z,95.30
2022-12-24T23:03:09.482Z,95.50
2022-12-24T23:05:40.379Z,95.40
2022-12-24T23:08:08.896Z,95.40
2022-12-24T23:10:54.094Z,95.40
2022-12-24T23:13:41.544Z,95.40
2022-12-24T23:16:10.144Z,95.40
2022-12-24T23:18:38.555Z,95.40
2022-12-24T23:21:07.325Z,95.50
2022-12-24T23:23:37.269Z,95.40
2022-12-24T23:26:06.480Z,95.40
2022-12-24T23:28:36.195Z,95.40
2022-12-24T23:31:04.810Z,95.40
2022-12-24T23:33:33.162Z,95.40
2022-12-24T23:36:01.637Z,95.40
2022-12-24T23:38:30.026Z,95.40
2022-12-24T23:40:58.393Z,95.40
2022-12-24T23:43:26.827Z,95.40
2022-12-24T23:45:56.657Z,95.40
2022-12-24T23:48:25.148Z,95.40
2022-12-24T23:50:53.594Z,95.40
2022-12-24T23:53:22.162Z,95.40
2022-12-24T23:55:50.540Z,95.40
2022-12-24T23:58:18.882Z,95.40
